createdAt,value
2023-04-03T00:01:33.538Z,75.30
2023-04-03T00:04:06.394Z,75.35
2023-04-03T00:06:39.331Z,74.71
2023-04-03T00:09:12.074Z,75.22
2023-04-03T00:11:46.228Z,74.95
2023-04-03T00:14:18.959Z,76.12
2023-04-03T00:16:51.726Z,74.46
2023-04-03T00:19:24.638Z,75.49
2023-04-03T00:21:57.504Z,74.82
2023-04-03T00:24:30.391Z,74.57
2023-04-03T00:27:04.469Z,72.75
2023-04-03T00:29:37.137Z,73.21
2023-04-03T00:32:09.804Z,72.86
2023-04-03T00:34:42.489Z,73.60
2023-04-03T00:37:15.443Z,73.74
2023-04-03T00:39:48.148Z,74.18
2023-04-03T00:42:22.689Z,73.66
2023-04-03T00:45:14.512Z,73.00
2023-04-03T00:47:47.552Z,74.16
2023-04-03T00:50:20.455Z,73.33
2023-04-03T00:52:53.349Z,74.15
2023-04-03T00:55:27.293Z,72.86
2023-04-03T00:58:01.998Z,71.98
2023-04-03T01:00:34.948Z,73.67
2023-04-03T01:03:07.906Z,73.41
2023-04-03T01:05:41.702Z,73.67
2023-04-03T01:08:14.530Z,72.93
2023-04-03T01:10:47.389Z,74.26
2023-04-03T01:13:35.567Z,74.01
2023-04-03T01:16:09.111Z,74.00
2023-04-03T01:18:42.765Z,73.98
2023-04-03T01:21:42.676Z,73.67
2023-04-03T01:24:24.247Z,73.44
2023-04-03T01:26:57.279Z,73.74
2023-04-03T01:29:31.828Z,74.50
2023-04-03T01:32:06.224Z,73.95
2023-04-03T01:34:39.209Z,73.89
2023-04-03T01:37:12.385Z,73.89
2023-04-03T01:39:45.271Z,74.51
2023-04-03T01:42:18.201Z,74.64
2023-04-03T01:44:51.397Z,74.34
2023-04-03T01:47:26.068Z,72.91
2023-04-03T01:49:59.262Z,74.25
2023-04-03T01:52:32.407Z,74.63
2023-04-03T01:55:05.303Z,74.40
2023-04-03T01:57:38.115Z,75.17
2023-04-03T02:00:11.837Z,74.84
2023-04-03T02:02:45.980Z,75.22
2023-04-03T02:05:18.976Z,74.08
2023-04-03T02:07:51.709Z,74.15
2023-04-03T02:10:24.616Z,74.69
2023-04-03T02:12:57.259Z,73.86
2023-04-03T02:15:30.114Z,73.82
2023-04-03T02:18:07.632Z,74.54
2023-04-03T02:20:40.820Z,74.21
2023-04-03T02:23:13.592Z,73.25
2023-04-03T02:25:46.537Z,73.47
2023-04-03T02:28:19.301Z,73.80
2023-04-03T02:30:52.375Z,74.02
2023-04-03T02:33:26.943Z,74.38
2023-04-03T02:36:00.428Z,74.18
2023-04-03T02:38:33.590Z,74.77
2023-04-03T02:41:06.872Z,74.99
2023-04-03T02:43:40.016Z,75.25
2023-04-03T02:46:12.844Z,74.69
2023-04-03T02:48:47.061Z,73.94
2023-04-03T02:51:20.232Z,74.35
2023-04-03T02:53:53.056Z,73.47
2023-04-03T02:56:25.890Z,73.99
2023-04-03T02:58:58.562Z,74.18
2023-04-03T03:01:33.617Z,74.39
2023-04-03T03:04:07.918Z,74.02
2023-04-03T03:06:42.368Z,74.19
2023-04-03T03:09:16.779Z,74.32
2023-04-03T03:11:49.735Z,74.00
2023-04-03T03:14:22.737Z,74.12
2023-04-03T03:16:55.695Z,71.75
2023-04-03T03:19:30.110Z,74.10
2023-04-03T03:22:02.935Z,74.02
2023-04-03T03:24:35.693Z,74.31
2023-04-03T03:27:08.583Z,74.89
2023-04-03T03:29:41.351Z,74.00
2023-04-03T03:32:14.311Z,73.99
2023-04-03T03:34:48.776Z,74.84
2023-04-03T03:37:21.598Z,74.25
2023-04-03T03:39:54.338Z,74.86
2023-04-03T03:42:27.425Z,74.62
2023-04-03T03:45:00.157Z,74.10
2023-04-03T03:47:33.107Z,74.18
2023-04-03T03:50:08.629Z,74.12
2023-04-03T03:52:41.799Z,74.69
2023-04-03T03:55:14.577Z,74.58
2023-04-03T03:57:47.563Z,74.68
2023-04-03T04:00:20.962Z,75.05
2023-04-03T04:02:54.081Z,74.21
2023-04-03T04:05:29.220Z,75.00
2023-04-03T04:08:02.199Z,74.12
2023-04-03T04:10:35.129Z,74.56
2023-04-03T04:13:08.021Z,74.17
2023-04-03T04:15:41.336Z,74.89
2023-04-03T04:18:14.482Z,74.37
2023-04-03T04:20:48.618Z,75.37
2023-04-03T04:23:21.389Z,75.50
2023-04-03T04:25:54.164Z,74.77
2023-04-03T04:28:26.951Z,74.95
2023-04-03T04:30:59.660Z,75.42
2023-04-03T04:33:32.450Z,75.43
2023-04-03T04:36:07.330Z,76.01
2023-04-03T04:38:41.107Z,75.26
2023-04-03T04:41:14.055Z,75.31
2023-04-03T04:43:46.825Z,74.93
2023-04-03T04:46:20.069Z,75.77
2023-04-03T04:48:52.905Z,75.15
2023-04-03T04:51:28.413Z,74.49
2023-04-03T04:54:02.385Z,74.25
2023-04-03T04:56:35.632Z,74.63
2023-04-03T04:59:08.718Z,74.14
2023-04-03T05:01:42.110Z,74.05
2023-04-03T05:04:14.918Z,73.90
2023-04-03T05:06:49.408Z,75.75
2023-04-03T05:09:22.265Z,74.83
2023-04-03T05:11:55.023Z,74.38
2023-04-03T05:14:27.750Z,75.30
2023-04-03T05:17:00.456Z,74.40
2023-04-03T05:19:33.221Z,74.66
2023-04-03T05:22:07.382Z,74.53
2023-04-03T05:24:40.198Z,73.51
2023-04-03T05:27:12.930Z,71.56
2023-04-03T05:29:46.062Z,72.48
2023-04-03T05:32:18.953Z,72.59
2023-04-03T05:34:52.019Z,72.80
2023-04-03T05:37:26.372Z,73.65
2023-04-03T05:39:59.119Z,73.39
2023-04-03T05:42:31.912Z,72.75
2023-04-03T05:45:05.281Z,70.52
2023-04-03T05:47:38.062Z,72.25
2023-04-03T05:50:11.267Z,73.53
2023-04-03T05:52:47.809Z,72.86
2023-04-03T05:55:21.352Z,73.19
2023-04-03T05:57:54.150Z,72.58
2023-04-03T06:00:26.901Z,72.93
2023-04-03T06:02:59.706Z,73.44
2023-04-03T06:05:32.700Z,71.90
2023-04-03T06:08:06.785Z,72.60
2023-04-03T06:10:39.682Z,72.28
2023-04-03T06:13:13.531Z,72.26
2023-04-03T06:15:47.754Z,72.75
2023-04-03T06:18:20.537Z,74.00
2023-04-03T06:20:53.324Z,73.04
2023-04-03T06:23:27.442Z,73.46
2023-04-03T06:26:01.054Z,74.26
2023-04-03T06:28:33.761Z,75.46
2023-04-03T06:31:06.562Z,74.47
2023-04-03T06:33:41.261Z,75.27
2023-04-03T06:36:14.227Z,71.58
2023-04-03T06:38:48.308Z,73.32
2023-04-03T06:41:21.930Z,73.17
2023-04-03T06:43:54.763Z,75.87
2023-04-03T06:46:28.572Z,74.61
2023-04-03T06:49:01.223Z,74.56
2023-04-03T06:51:33.870Z,75.24
2023-04-03T06:54:09.307Z,75.44
2023-04-03T06:56:42.077Z,75.56
2023-04-03T06:59:15.862Z,73.93
2023-04-03T07:01:48.784Z,76.50
2023-04-03T07:04:22.273Z,75.58
2023-04-03T07:06:55.015Z,75.64
2023-04-03T07:09:29.062Z,75.68
2023-04-03T07:12:01.790Z,74.94
2023-04-03T07:14:34.450Z,74.40
2023-04-03T07:17:09.367Z,75.54
2023-04-03T07:19:42.334Z,75.44
2023-04-03T07:22:15.031Z,74.99
2023-04-03T07:24:49.225Z,76.07
2023-04-03T07:27:21.988Z,74.32
2023-04-03T07:29:55.652Z,73.78
2023-04-03T07:32:29.321Z,74.95
2023-04-03T07:35:02.920Z,75.63
2023-04-03T07:37:36.676Z,74.89
2023-04-03T07:40:11.773Z,75.60
2023-04-03T07:42:44.603Z,74.60
2023-04-03T07:45:18.360Z,74.15
2023-04-03T07:47:51.063Z,72.83
2023-04-03T07:50:23.924Z,71.47
2023-04-03T07:52:58.723Z,73.03
2023-04-03T07:55:34.985Z,71.42
2023-04-03T07:58:08.508Z,74.51
2023-04-03T08:00:41.379Z,69.31
2023-04-03T08:03:14.935Z,68.30
2023-04-03T08:05:48.840Z,73.74
2023-04-03T08:08:22.784Z,73.97
2023-04-03T08:10:57.038Z,71.29
2023-04-03T08:13:30.063Z,75.05
2023-04-03T08:16:09.254Z,73.78
2023-04-03T08:18:42.175Z,70.68
2023-04-03T08:21:15.253Z,72.17
2023-04-03T08:23:50.001Z,73.37
2023-04-03T08:26:24.100Z,74.28
2023-04-03T08:28:57.202Z,75.50
2023-04-03T08:31:29.909Z,74.47
2023-04-03T08:34:02.589Z,76.12
2023-04-03T08:36:35.466Z,74.46
2023-04-03T08:39:08.943Z,75.98
2023-04-03T08:41:44.896Z,74.75
2023-04-03T08:44:20.872Z,75.63
2023-04-03T08:47:05.464Z,74.79
2023-04-03T08:49:44.051Z,72.79
2023-04-03T08:52:19.837Z,73.87
2023-04-03T08:54:54.769Z,74.50
2023-04-03T08:57:31.659Z,75.44
2023-04-03T09:00:06.800Z,74.24
2023-04-03T09:02:44.193Z,74.81
2023-04-03T09:05:18.455Z,73.57
2023-04-03T09:07:56.584Z,75.69
2023-04-03T09:10:32.396Z,75.25
2023-04-03T09:13:09.752Z,71.58
2023-04-03T09:15:43.044Z,73.23
2023-04-03T09:18:17.803Z,75.83
2023-04-03T09:20:56.148Z,76.08
2023-04-03T09:23:31.973Z,72.14
2023-04-03T09:26:07.812Z,73.51
2023-04-03T09:28:50.621Z,74.32
2023-04-03T09:31:25.211Z,73.56
2023-04-03T09:34:00.587Z,73.60
2023-04-03T09:36:40.456Z,74.14
2023-04-03T09:39:14.563Z,73.82
2023-04-03T09:41:57.275Z,75.05
2023-04-03T09:44:32.658Z,73.55
2023-04-03T09:47:20.231Z,73.57
2023-04-03T09:49:53.019Z,73.15
2023-04-03T09:52:27.380Z,74.57
2023-04-03T09:55:08.554Z,72.90
2023-04-03T09:57:41.968Z,74.89
2023-04-03T10:00:23.875Z,75.65
2023-04-03T10:02:58.113Z,74.12
2023-04-03T10:05:33.528Z,75.33
2023-04-03T10:08:13.347Z,75.18
2023-04-03T10:10:47.998Z,76.66
2023-04-03T10:13:26.679Z,75.99
2023-04-03T10:16:03.956Z,76.72
2023-04-03T10:18:44.341Z,76.05
2023-04-03T10:21:27.537Z,74.57
2023-04-03T10:24:05.575Z,75.74
2023-04-03T10:26:41.649Z,75.24
2023-04-03T10:29:21.995Z,76.10
2023-04-03T10:32:01.966Z,74.75
2023-04-03T10:34:37.958Z,76.04
2023-04-03T10:37:16.300Z,74.47
2023-04-03T10:39:53.880Z,73.28
2023-04-03T10:42:30.952Z,74.38
2023-04-03T10:45:10.484Z,74.41
2023-04-03T10:47:48.695Z,73.60
2023-04-03T10:50:33.885Z,72.45
2023-04-03T10:53:10.385Z,73.84
2023-04-03T10:55:49.229Z,72.84
2023-04-03T10:58:26.069Z,73.47
2023-04-03T11:01:03.665Z,74.01
2023-04-03T11:03:42.222Z,74.51
2023-04-03T11:06:17.176Z,71.88
2023-04-03T11:08:56.230Z,72.31
2023-04-03T11:11:30.014Z,74.59
2023-04-03T11:14:04.575Z,74.00
2023-04-03T11:16:51.083Z,74.05
2023-04-03T11:19:33.752Z,74.01
2023-04-03T11:22:10.796Z,73.88
2023-04-03T11:24:44.412Z,73.34
2023-04-03T11:27:19.800Z,73.86
2023-04-03T11:29:54.448Z,75.86
2023-04-03T11:32:34.397Z,73.09
2023-04-03T11:35:09.740Z,74.85
2023-04-03T11:37:45.420Z,73.01
2023-04-03T11:40:23.601Z,74.97
2023-04-03T11:42:57.679Z,72.06
2023-04-03T11:45:35.647Z,73.23
2023-04-03T11:48:23.342Z,74.26
2023-04-03T11:50:58.716Z,73.42
2023-04-03T11:53:35.777Z,68.22
2023-04-03T11:56:27.003Z,72.72
2023-04-03T11:59:24.146Z,74.50
2023-04-03T12:01:57.578Z,74.12
2023-04-03T12:04:31.557Z,72.25
2023-04-03T12:07:22.808Z,74.39
2023-04-03T12:10:11.514Z,72.18
2023-04-03T12:13:04.859Z,72.86
2023-04-03T12:15:49.362Z,74.10
2023-04-03T12:18:43.713Z,74.40
2023-04-03T12:21:19.556Z,73.27
2023-04-03T12:24:01.460Z,73.12
2023-04-03T12:26:48.076Z,74.67
2023-04-03T12:29:25.719Z,73.29
2023-04-03T12:32:11.612Z,75.38
2023-04-03T12:34:52.910Z,76.48
2023-04-03T12:37:36.526Z,76.66
2023-04-03T12:40:12.683Z,78.35
2023-04-03T12:42:58.383Z,77.99
2023-04-03T12:45:39.855Z,77.29
2023-04-03T12:48:16.282Z,77.28
2023-04-03T12:50:49.384Z,77.50
2023-04-03T12:53:24.971Z,76.24
2023-04-03T12:55:58.085Z,73.46
2023-04-03T12:58:31.806Z,74.95
2023-04-03T13:01:06.644Z,72.88
2023-04-03T13:03:40.413Z,71.39
2023-04-03T13:06:17.144Z,72.79
2023-04-03T13:08:53.342Z,73.44
2023-04-03T13:11:27.557Z,73.98
2023-04-03T13:14:01.351Z,74.07
2023-04-03T13:16:35.580Z,74.76
2023-04-03T13:19:08.361Z,73.91
2023-04-03T13:21:41.328Z,75.90
2023-04-03T13:24:15.676Z,73.08
2023-04-03T13:26:48.624Z,73.92
2023-04-03T13:29:29.975Z,75.42
2023-04-03T13:32:07.237Z,73.95
2023-04-03T13:34:42.552Z,72.09
2023-04-03T13:37:25.908Z,68.46
2023-04-03T13:39:59.474Z,61.42
2023-04-03T13:42:32.921Z,65.72
2023-04-03T13:45:17.708Z,67.76
2023-04-03T13:47:52.523Z,65.90
2023-04-03T13:50:27.045Z,67.64
2023-04-03T13:53:03.303Z,66.80
2023-04-03T13:55:37.567Z,68.79
2023-04-03T13:58:23.422Z,69.41
2023-04-03T14:00:57.065Z,69.01
2023-04-03T14:03:33.530Z,69.41
2023-04-03T14:06:07.910Z,68.73
2023-04-03T14:08:43.524Z,69.40
2023-04-03T14:11:17.579Z,71.50
2023-04-03T14:13:51.326Z,70.87
2023-04-03T14:16:25.187Z,67.48
2023-04-03T14:18:59.359Z,69.53
2023-04-03T14:21:32.176Z,73.64
2023-04-03T14:24:05.029Z,72.81
2023-04-03T14:26:37.835Z,72.42
2023-04-03T14:29:12.315Z,71.28
2023-04-03T14:31:46.224Z,68.18
2023-04-03T14:34:20.323Z,70.99
2023-04-03T14:36:53.563Z,72.96
2023-04-03T14:39:26.442Z,72.21
2023-04-03T14:41:59.179Z,72.95
2023-04-03T14:44:31.883Z,73.16
2023-04-03T14:47:04.679Z,75.10
2023-04-03T14:49:38.761Z,73.91
2023-04-03T14:52:18.605Z,72.35
2023-04-03T14:54:52.207Z,66.65
2023-04-03T14:57:26.260Z,59.94
2023-04-03T14:59:59.174Z,65.41
2023-04-03T15:02:33.858Z,70.37
2023-04-03T15:05:10.528Z,71.87
2023-04-03T15:07:44.609Z,66.55
2023-04-03T15:10:18.508Z,69.00
2023-04-03T15:12:51.973Z,71.86
2023-04-03T15:15:25.799Z,70.96
2023-04-03T15:17:59.747Z,69.66
2023-04-03T15:20:34.683Z,70.42
2023-04-03T15:23:07.512Z,69.36
2023-04-03T15:25:40.548Z,63.44
2023-04-03T15:28:19.713Z,59.75
2023-04-03T15:30:52.384Z,68.46
2023-04-03T15:33:25.433Z,71.02
2023-04-03T15:36:07.425Z,69.86
2023-04-03T15:38:44.766Z,67.73
2023-04-03T15:41:17.429Z,70.91
2023-04-03T15:43:50.430Z,70.44
2023-04-03T15:46:23.215Z,71.09
2023-04-03T15:48:56.085Z,70.81
2023-04-03T15:51:30.517Z,70.56
2023-04-03T15:54:03.227Z,70.09
2023-04-03T15:56:35.907Z,70.42
2023-04-03T15:59:08.601Z,70.07
2023-04-03T16:01:41.762Z,70.79
2023-04-03T16:04:15.607Z,70.61
2023-04-03T16:06:50.556Z,67.95
2023-04-03T16:09:23.218Z,68.29
2023-04-03T16:11:55.934Z,66.83
2023-04-03T16:14:29.107Z,69.84
2023-04-03T16:17:02.420Z,70.91
2023-04-03T16:19:35.338Z,69.47
2023-04-03T16:22:09.762Z,70.44
2023-04-03T16:24:42.536Z,70.14
2023-04-03T16:27:15.430Z,70.01
2023-04-03T16:29:48.086Z,70.32
2023-04-03T16:32:20.967Z,66.92
2023-04-03T16:34:53.823Z,69.45
2023-04-03T16:37:28.807Z,72.21
2023-04-03T16:40:03.910Z,64.60
2023-04-03T16:42:37.981Z,66.85
2023-04-03T16:45:11.362Z,68.94
2023-04-03T16:47:44.550Z,66.25
2023-04-03T16:50:17.433Z,68.66
2023-04-03T16:52:51.901Z,70.45
2023-04-03T16:55:24.660Z,70.78
2023-04-03T16:57:57.384Z,70.68
2023-04-03T17:00:30.243Z,72.40
2023-04-03T17:03:03.003Z,72.18
2023-04-03T17:05:35.872Z,73.05
2023-04-03T17:08:10.271Z,71.74
2023-04-03T17:10:42.975Z,70.63
2023-04-03T17:13:15.681Z,72.38
2023-04-03T17:15:48.661Z,72.45
2023-04-03T17:18:21.357Z,68.25
2023-04-03T17:20:54.080Z,67.32
2023-04-03T17:23:29.260Z,69.23
2023-04-03T17:26:02.186Z,69.66
2023-04-03T17:28:35.070Z,68.68
2023-04-03T17:31:07.971Z,66.21
2023-04-03T17:33:40.811Z,70.73
2023-04-03T17:36:13.613Z,67.58
2023-04-03T17:38:48.819Z,67.96
2023-04-03T17:41:22.126Z,68.98
2023-04-03T17:43:57.023Z,68.62
2023-04-03T17:46:31.415Z,69.75
2023-04-03T17:49:05.598Z,69.57
2023-04-03T17:51:38.286Z,70.22
2023-04-03T17:54:12.797Z,71.05
2023-04-03T17:56:48.481Z,70.51
2023-04-03T17:59:21.195Z,71.27
2023-04-03T18:01:54.126Z,70.50
2023-04-03T18:04:29.032Z,69.44
2023-04-03T18:07:03.675Z,70.32
2023-04-03T18:09:39.587Z,68.15
2023-04-03T18:12:12.319Z,69.32
2023-04-03T18:14:45.519Z,69.44
2023-04-03T18:17:19.561Z,69.64
2023-04-03T18:19:52.766Z,72.31
2023-04-03T18:22:25.718Z,71.13
2023-04-03T18:25:00.145Z,70.54
2023-04-03T18:27:32.947Z,70.99
2023-04-03T18:30:08.707Z,70.10
2023-04-03T18:32:41.519Z,71.08
2023-04-03T18:35:14.314Z,71.66
2023-04-03T18:37:47.090Z,70.17
2023-04-03T18:40:21.290Z,70.45
2023-04-03T18:42:53.982Z,70.68
2023-04-03T18:45:26.860Z,70.56
2023-04-03T18:48:00.332Z,70.33
2023-04-03T18:50:33.364Z,72.02
2023-04-03T18:53:06.044Z,71.73
2023-04-03T18:55:40.412Z,72.03
2023-04-03T18:58:13.311Z,72.13
2023-04-03T19:00:46.207Z,71.18
2023-04-03T19:03:19.099Z,73.67
2023-04-03T19:05:51.912Z,71.74
2023-04-03T19:08:24.916Z,70.56
2023-04-03T19:10:59.026Z,70.70
2023-04-03T19:13:32.672Z,70.43
2023-04-03T19:16:05.736Z,72.45
2023-04-03T19:18:38.503Z,69.28
2023-04-03T19:21:11.210Z,71.53
2023-04-03T19:23:45.104Z,70.72
2023-04-03T19:26:19.237Z,70.90
2023-04-03T19:28:52.687Z,70.16
2023-04-03T19:31:25.487Z,69.91
2023-04-03T19:33:58.662Z,69.83
2023-04-03T19:36:31.662Z,71.66
2023-04-03T19:39:04.568Z,69.98
2023-04-03T19:41:40.632Z,71.55
2023-04-03T19:44:13.721Z,70.40
2023-04-03T19:46:51.264Z,69.54
2023-04-03T19:49:24.490Z,69.57
2023-04-03T19:51:57.140Z,69.47
2023-04-03T19:54:29.796Z,67.88
2023-04-03T19:57:04.007Z,68.83
2023-04-03T19:59:36.758Z,68.58
2023-04-03T20:02:09.539Z,67.26
2023-04-03T20:04:42.503Z,67.53
2023-04-03T20:07:15.192Z,66.52
2023-04-03T20:09:47.990Z,66.62
2023-04-03T20:12:22.162Z,68.30
2023-04-03T20:14:55.115Z,66.82
2023-04-03T20:17:28.272Z,67.20
2023-04-03T20:20:01.842Z,67.34
2023-04-03T20:22:34.563Z,67.43
2023-04-03T20:25:08.270Z,68.16
2023-04-03T20:27:42.674Z,65.65
2023-04-03T20:30:15.614Z,67.27
2023-04-03T20:32:48.545Z,67.34
2023-04-03T20:35:22.294Z,65.91
2023-04-03T20:37:55.020Z,67.06
2023-04-03T20:40:27.797Z,67.29
2023-04-03T20:43:03.078Z,68.00
2023-04-03T20:45:36.365Z,67.27
2023-04-03T20:48:09.109Z,67.54
2023-04-03T20:50:42.223Z,67.49
2023-04-03T20:53:18.097Z,67.58
2023-04-03T20:55:59.988Z,67.08
2023-04-03T20:58:34.648Z,67.78
2023-04-03T21:01:14.268Z,67.55
2023-04-03T21:03:47.493Z,67.96
2023-04-03T21:06:38.681Z,67.56
2023-04-03T21:09:30.045Z,68.29
2023-04-03T21:12:21.483Z,68.23
2023-04-03T21:15:13.054Z,68.10
2023-04-03T21:18:08.306Z,68.75
2023-04-03T21:20:41.721Z,68.74
2023-04-03T21:23:15.743Z,67.90
2023-04-03T21:25:49.462Z,68.36
2023-04-03T21:28:23.076Z,68.52
2023-04-03T21:30:55.956Z,69.56
2023-04-03T21:33:31.632Z,68.68
2023-04-03T21:36:04.352Z,68.27
2023-04-03T21:38:37.429Z,68.77
2023-04-03T21:41:10.143Z,68.35
2023-04-03T21:43:42.862Z,69.42
2023-04-03T21:46:16.090Z,68.91
2023-04-03T21:48:50.252Z,68.84
2023-04-03T21:51:23.385Z,68.60
2023-04-03T21:53:56.489Z,69.28
2023-04-03T21:56:31.434Z,68.51
2023-04-03T21:59:04.742Z,68.98
2023-04-03T22:01:37.645Z,68.83
2023-04-03T22:04:12.803Z,68.26
2023-04-03T22:06:45.864Z,68.56
2023-04-03T22:09:18.737Z,69.29
2023-04-03T22:11:51.810Z,69.00
2023-04-03T22:14:24.638Z,68.70
2023-04-03T22:16:58.264Z,68.66
2023-04-03T22:19:32.664Z,68.33
2023-04-03T22:22:05.275Z,68.66
2023-04-03T22:24:38.175Z,68.53
2023-04-03T22:27:11.838Z,68.44
2023-04-03T22:29:44.584Z,68.43
2023-04-03T22:32:17.319Z,68.37
2023-04-03T22:34:51.454Z,68.19
2023-04-03T22:37:24.150Z,67.92
2023-04-03T22:39:56.834Z,67.91
2023-04-03T22:42:29.742Z,68.25
2023-04-03T22:45:02.663Z,67.91
2023-04-03T22:47:35.393Z,68.06
2023-04-03T22:50:10.019Z,67.86
2023-04-03T22:52:42.696Z,67.60
2023-04-03T22:55:19.440Z,68.13
2023-04-03T22:57:52.332Z,68.02
2023-04-03T23:00:27.739Z,67.92
2023-04-03T23:03:01.398Z,67.76
2023-04-03T23:05:35.496Z,67.55
2023-04-03T23:08:08.262Z,67.59
2023-04-03T23:10:42.459Z,67.78
2023-04-03T23:13:15.457Z,67.62
2023-04-03T23:15:53.383Z,67.87
2023-04-03T23:18:26.878Z,67.87
2023-04-03T23:21:01.805Z,67.87
2023-04-03T23:23:34.572Z,67.80
2023-04-03T23:26:09.209Z,67.69
2023-04-03T23:28:42.245Z,67.89
2023-04-03T23:31:14.945Z,67.86
2023-04-03T23:33:47.805Z,67.96
2023-04-03T23:36:22.250Z,67.96
2023-04-03T23:38:56.952Z,67.80
2023-04-03T23:41:29.677Z,67.59
2023-04-03T23:44:02.322Z,67.88
2023-04-03T23:46:35.291Z,67.90
2023-04-03T23:49:07.977Z,67.98
2023-04-03T23:51:42.239Z,67.80
2023-04-03T23:54:14.875Z,68.07
2023-04-03T23:56:48.106Z,67.87
2023-04-03T23:59:21.370Z,68.17
